createdAt,value
2023-03-26T00:00:50.589Z,99.90
2023-03-26T00:01:53.076Z,99.90
2023-03-26T00:02:56.146Z,99.90
2023-03-26T00:03:58.845Z,99.90
2023-03-26T00:05:01.848Z,99.90
2023-03-26T00:06:31.545Z,99.90
2023-03-26T00:07:34.536Z,99.90
2023-03-26T00:08:38.556Z,99.90
2023-03-26T00:09:40.923Z,99.90
2023-03-26T00:10:44.453Z,99.90
2023-03-26T00:11:47.065Z,99.90
2023-03-26T00:12:49.831Z,99.90
2023-03-26T00:13:53.938Z,99.90
2023-03-26T00:14:56.334Z,99.90
2023-03-26T00:15:59.906Z,99.90
2023-03-26T00:17:02.768Z,99.90
2023-03-26T00:18:05.959Z,99.90
2023-03-26T00:19:09.680Z,99.90
2023-03-26T00:20:14.164Z,99.90
2023-03-26T00:21:21.338Z,99.90
2023-03-26T00:22:23.812Z,99.90
2023-03-26T00:23:27.548Z,99.90
2023-03-26T00:24:30.979Z,99.90
2023-03-26T00:25:34.437Z,99.90
2023-03-26T00:26:39.762Z,99.90
2023-03-26T00:27:42.138Z,99.90
2023-03-26T00:28:44.836Z,99.90
2023-03-26T00:29:48.519Z,99.90
2023-03-26T00:30:59.500Z,99.90
2023-03-26T00:32:02.305Z,99.90
2023-03-26T00:33:04.798Z,99.90
2023-03-26T00:34:07.795Z,99.90
2023-03-26T00:35:11.252Z,99.90
2023-03-26T00:36:17.756Z,99.90
2023-03-26T00:37:26.697Z,99.90
2023-03-26T00:38:31.085Z,99.90
2023-03-26T00:39:37.580Z,99.90
2023-03-26T00:40:44.423Z,99.90
2023-03-26T00:41:46.805Z,99.90
2023-03-26T00:42:48.632Z,99.90
2023-03-26T00:43:53.651Z,99.90
2023-03-26T00:44:58.094Z,99.90
2023-03-26T00:46:02.519Z,99.90
2023-03-26T00:47:04.996Z,99.90
2023-03-26T00:48:08.677Z,99.90
2023-03-26T00:49:11.272Z,99.90
2023-03-26T00:50:16.450Z,99.90
2023-03-26T00:51:21.759Z,99.90
2023-03-26T00:52:24.154Z,99.90
2023-03-26T00:53:27.235Z,99.90
2023-03-26T00:54:30.185Z,99.90
2023-03-26T00:55:32.710Z,99.90
2023-03-26T00:56:36.265Z,99.90
2023-03-26T00:57:40.440Z,99.90
2023-03-26T00:58:43.188Z,99.90
2023-03-26T00:59:45.657Z,99.90
2023-03-26T01:00:59.359Z,99.90
2023-03-26T01:02:02.235Z,99.90
2023-03-26T01:03:06.265Z,99.90
2023-03-26T01:04:28.181Z,99.90
2023-03-26T01:05:36.620Z,99.90
2023-03-26T01:06:42.515Z,99.90
2023-03-26T01:07:45.721Z,99.90
2023-03-26T01:08:51.443Z,99.90
2023-03-26T01:09:56.396Z,99.90
2023-03-26T01:11:03.518Z,99.90
2023-03-26T01:12:08.883Z,99.90
2023-03-26T01:13:11.384Z,99.90
2023-03-26T01:14:23.955Z,99.90
2023-03-26T01:15:30.228Z,99.90
2023-03-26T01:16:55.245Z,99.90
2023-03-26T01:17:58.469Z,99.90
2023-03-26T01:19:02.446Z,99.90
2023-03-26T01:20:17.958Z,99.90
2023-03-26T01:21:29.246Z,99.90
2023-03-26T01:22:31.708Z,99.90
2023-03-26T01:23:51.403Z,99.90
2023-03-26T01:24:58.025Z,99.90
2023-03-26T01:26:21.396Z,99.90
2023-03-26T01:27:50.251Z,99.90
2023-03-26T01:28:59.980Z,99.90
2023-03-26T01:30:21.693Z,99.90
2023-03-26T01:31:42.023Z,99.90
2023-03-26T01:33:21.796Z,99.90
2023-03-26T01:34:49.984Z,99.90
2023-03-26T01:36:07.296Z,99.90
2023-03-26T01:37:21.107Z,99.90
2023-03-26T01:38:26.077Z,99.90
2023-03-26T01:39:49.908Z,99.90
2023-03-26T01:41:04.912Z,99.90
2023-03-26T01:42:15.778Z,99.90
2023-03-26T01:43:46.151Z,99.90
2023-03-26T01:45:00.172Z,99.90
2023-03-26T01:46:07.034Z,99.90
2023-03-26T01:47:11.751Z,99.90
2023-03-26T01:48:14.470Z,99.90
2023-03-26T01:49:19.055Z,99.90
2023-03-26T01:50:21.794Z,99.90
2023-03-26T01:51:32.980Z,99.90
2023-03-26T01:52:35.354Z,99.90
2023-03-26T01:53:46.850Z,99.90
2023-03-26T01:54:50.502Z,99.90
2023-03-26T01:56:16.995Z,99.90
2023-03-26T01:57:55.278Z,99.90
2023-03-26T01:59:02.075Z,99.90
2023-03-26T02:00:18.380Z,99.90
2023-03-26T02:01:45.281Z,99.90
2023-03-26T02:02:51.063Z,99.90
2023-03-26T02:04:10.922Z,99.90
2023-03-26T02:05:16.040Z,99.90
2023-03-26T02:06:34.579Z,99.90
2023-03-26T02:07:54.417Z,99.90
2023-03-26T02:09:03.937Z,99.90
2023-03-26T02:10:27.749Z,99.90
2023-03-26T02:11:35.403Z,99.90
2023-03-26T02:12:38.818Z,99.90
2023-03-26T02:13:43.776Z,99.90
2023-03-26T02:14:49.274Z,99.90
2023-03-26T02:16:03.112Z,99.90
2023-03-26T02:17:06.256Z,99.90
2023-03-26T02:18:12.379Z,99.90
2023-03-26T02:19:22.308Z,99.90
2023-03-26T02:20:30.523Z,99.90
2023-03-26T02:21:34.295Z,99.90
2023-03-26T02:22:41.145Z,99.90
2023-03-26T02:23:47.305Z,99.90
2023-03-26T02:24:50.628Z,99.90
2023-03-26T02:25:54.289Z,99.90
2023-03-26T02:26:58.402Z,99.90
2023-03-26T02:28:00.576Z,99.90
2023-03-26T02:29:05.333Z,99.90
2023-03-26T02:30:11.144Z,99.90
2023-03-26T02:31:14.141Z,99.90
2023-03-26T02:32:19.575Z,99.90
2023-03-26T02:33:21.988Z,99.90
2023-03-26T02:34:24.492Z,99.90
2023-03-26T02:35:27.076Z,99.90
2023-03-26T02:36:32.341Z,99.90
2023-03-26T02:37:35.178Z,99.90
2023-03-26T02:38:39.557Z,99.90
2023-03-26T02:39:42.578Z,99.90
2023-03-26T02:40:45.660Z,99.90
2023-03-26T02:41:48.128Z,99.90
2023-03-26T02:42:50.699Z,99.90
2023-03-26T02:43:53.252Z,99.90
2023-03-26T02:44:55.827Z,99.90
2023-03-26T02:45:58.528Z,99.90
2023-03-26T02:47:01.724Z,99.90
2023-03-26T02:48:04.408Z,99.90
2023-03-26T02:49:06.965Z,99.90
2023-03-26T02:50:09.858Z,99.90
2023-03-26T02:51:12.411Z,99.90
2023-03-26T02:52:17.507Z,99.90
2023-03-26T02:53:24.313Z,99.90
2023-03-26T02:54:28.151Z,99.90
2023-03-26T02:55:30.533Z,99.90
2023-03-26T02:56:33.500Z,99.90
2023-03-26T02:57:37.183Z,99.90
2023-03-26T02:58:39.591Z,99.90
2023-03-26T02:59:42.197Z,99.90
2023-03-26T03:00:47.040Z,99.90
2023-03-26T03:01:51.078Z,99.90
2023-03-26T03:02:55.214Z,99.90
2023-03-26T03:03:57.956Z,99.90
2023-03-26T03:05:01.952Z,99.90
2023-03-26T03:06:04.751Z,99.90
2023-03-26T03:07:08.102Z,99.90
2023-03-26T03:08:11.037Z,99.90
2023-03-26T03:09:14.842Z,99.90
2023-03-26T03:10:22.072Z,99.90
2023-03-26T03:11:27.035Z,99.90
2023-03-26T03:12:29.474Z,99.90
2023-03-26T03:13:32.003Z,99.90
2023-03-26T03:14:34.628Z,99.90
2023-03-26T03:15:37.011Z,99.90
2023-03-26T03:16:39.680Z,99.90
2023-03-26T03:17:43.388Z,99.90
2023-03-26T03:18:46.787Z,99.90
2023-03-26T03:19:49.144Z,99.90
2023-03-26T03:20:51.882Z,99.90
2023-03-26T03:21:54.083Z,99.90
2023-03-26T03:22:56.790Z,99.90
2023-03-26T03:24:01.947Z,99.90
2023-03-26T03:25:06.034Z,99.90
2023-03-26T03:26:15.779Z,99.90
2023-03-26T03:27:23.264Z,99.90
2023-03-26T03:28:27.187Z,99.90
2023-03-26T03:29:31.180Z,99.90
2023-03-26T03:30:33.700Z,99.90
2023-03-26T03:31:36.075Z,99.90
2023-03-26T03:32:39.005Z,99.90
2023-03-26T03:33:43.351Z,99.90
2023-03-26T03:34:46.900Z,99.90
2023-03-26T03:35:50.704Z,99.90
2023-03-26T03:36:53.214Z,99.90
2023-03-26T03:37:56.234Z,99.90
2023-03-26T03:39:02.823Z,99.90
2023-03-26T03:40:07.718Z,99.90
2023-03-26T03:41:11.537Z,99.90
2023-03-26T03:42:15.196Z,99.90
2023-03-26T03:43:17.721Z,99.90
2023-03-26T03:44:21.723Z,99.90
2023-03-26T03:45:24.166Z,99.90
2023-03-26T03:46:26.726Z,99.90
2023-03-26T03:47:29.115Z,99.90
2023-03-26T03:48:34.082Z,99.90
2023-03-26T03:49:36.432Z,99.90
2023-03-26T03:50:40.423Z,99.90
2023-03-26T03:51:43.210Z,99.90
2023-03-26T03:52:47.024Z,99.90
2023-03-26T03:53:50.273Z,99.90
2023-03-26T03:54:55.008Z,99.90
2023-03-26T03:55:58.212Z,99.90
2023-03-26T03:57:03.879Z,99.90
2023-03-26T03:58:09.329Z,99.90
2023-03-26T03:59:12.055Z,99.90
2023-03-26T04:00:15.266Z,99.90
2023-03-26T04:01:18.834Z,99.90
2023-03-26T04:02:30.636Z,99.90
2023-03-26T04:03:39.237Z,99.90
2023-03-26T04:04:42.395Z,99.90
2023-03-26T04:05:50.136Z,99.90
2023-03-26T04:06:52.884Z,99.90
2023-03-26T04:08:01.365Z,99.90
2023-03-26T04:09:04.052Z,99.90
2023-03-26T04:10:08.962Z,99.90
2023-03-26T04:11:11.932Z,99.90
2023-03-26T04:12:14.850Z,99.90
2023-03-26T04:13:17.761Z,99.90
2023-03-26T04:14:20.154Z,99.90
2023-03-26T04:15:22.498Z,99.90
2023-03-26T04:16:24.958Z,99.90
2023-03-26T04:17:27.689Z,99.90
2023-03-26T04:18:32.752Z,99.90
2023-03-26T04:19:35.162Z,99.90
2023-03-26T04:20:42.995Z,99.90
2023-03-26T04:21:45.378Z,99.90
2023-03-26T04:22:48.197Z,99.90
2023-03-26T04:23:50.740Z,99.90
2023-03-26T04:24:54.742Z,99.90
2023-03-26T04:25:59.186Z,99.90
2023-03-26T04:27:02.009Z,99.90
2023-03-26T04:28:07.563Z,99.90
2023-03-26T04:29:13.082Z,99.90
2023-03-26T04:30:20.786Z,99.90
2023-03-26T04:31:29.758Z,99.90
2023-03-26T04:32:36.189Z,99.90
2023-03-26T04:33:41.766Z,99.90
2023-03-26T04:34:46.444Z,99.90
2023-03-26T04:35:49.775Z,99.90
2023-03-26T04:36:56.298Z,99.90
2023-03-26T04:38:00.191Z,99.90
2023-03-26T04:39:05.480Z,99.90
2023-03-26T04:40:15.463Z,99.90
2023-03-26T04:41:17.904Z,99.90
2023-03-26T04:42:20.528Z,99.90
2023-03-26T04:43:23.434Z,99.90
2023-03-26T04:44:25.794Z,99.90
2023-03-26T04:45:30.501Z,99.90
2023-03-26T04:46:33.891Z,99.90
2023-03-26T04:47:37.768Z,99.90
2023-03-26T04:48:41.705Z,99.90
2023-03-26T04:49:45.730Z,99.90
2023-03-26T04:50:49.173Z,99.90
2023-03-26T04:51:51.733Z,99.90
2023-03-26T04:52:57.653Z,99.90
2023-03-26T04:54:02.630Z,99.90
2023-03-26T04:55:17.431Z,99.90
2023-03-26T04:56:24.979Z,99.90
2023-03-26T04:57:38.310Z,99.90
2023-03-26T04:58:41.542Z,99.90
2023-03-26T04:59:43.900Z,99.90
2023-03-26T05:00:47.723Z,99.90
2023-03-26T05:01:50.143Z,99.90
2023-03-26T05:02:54.439Z,99.90
2023-03-26T05:03:58.863Z,99.90
2023-03-26T05:05:03.228Z,99.90
2023-03-26T05:06:07.198Z,99.90
2023-03-26T05:07:11.517Z,99.90
2023-03-26T05:08:14.334Z,99.90
2023-03-26T05:09:18.246Z,99.90
2023-03-26T05:10:21.501Z,99.90
2023-03-26T05:11:23.948Z,99.90
2023-03-26T05:12:26.527Z,99.90
2023-03-26T05:13:29.031Z,99.90
2023-03-26T05:14:32.763Z,99.90
2023-03-26T05:15:35.604Z,99.90
2023-03-26T05:16:39.761Z,99.90
2023-03-26T05:17:43.560Z,99.90
2023-03-26T05:18:48.494Z,99.90
2023-03-26T05:19:52.268Z,99.90
2023-03-26T05:20:56.324Z,99.90
2023-03-26T05:21:59.058Z,99.90
2023-03-26T05:23:01.693Z,99.90
2023-03-26T05:24:05.770Z,99.90
2023-03-26T05:25:08.840Z,99.90
2023-03-26T05:26:11.788Z,99.90
2023-03-26T05:27:17.188Z,99.90
2023-03-26T05:28:21.116Z,99.90
2023-03-26T05:29:24.988Z,99.90
2023-03-26T05:30:27.943Z,99.90
2023-03-26T05:31:31.423Z,99.90
2023-03-26T05:32:34.999Z,99.90
2023-03-26T05:33:38.051Z,99.90
2023-03-26T05:34:41.768Z,99.90
2023-03-26T05:35:44.289Z,99.90
2023-03-26T05:36:48.807Z,99.90
2023-03-26T05:37:52.317Z,99.90
2023-03-26T05:38:54.702Z,99.90
2023-03-26T05:39:59.530Z,99.90
2023-03-26T05:41:07.159Z,99.90
2023-03-26T05:42:09.834Z,99.90
2023-03-26T05:43:12.298Z,99.90
2023-03-26T05:44:14.787Z,99.90
2023-03-26T05:45:17.252Z,99.90
2023-03-26T05:46:20.853Z,99.90
2023-03-26T05:47:23.621Z,99.90
2023-03-26T05:48:27.229Z,99.90
2023-03-26T05:49:29.673Z,99.90
2023-03-26T05:50:33.519Z,99.90
2023-03-26T05:51:36.258Z,99.90
2023-03-26T05:52:38.899Z,99.90
2023-03-26T05:53:41.815Z,99.90
2023-03-26T05:54:45.101Z,99.90
2023-03-26T05:55:56.013Z,99.90
2023-03-26T05:56:58.525Z,99.90
2023-03-26T05:58:02.465Z,99.90
2023-03-26T05:59:04.898Z,99.90
2023-03-26T06:00:09.218Z,99.90
2023-03-26T06:01:17.370Z,99.90
2023-03-26T06:02:19.862Z,99.90
2023-03-26T06:03:23.513Z,99.90
2023-03-26T06:04:26.146Z,99.90
2023-03-26T06:05:32.727Z,99.90
2023-03-26T06:06:35.215Z,99.90
2023-03-26T06:07:38.332Z,99.90
2023-03-26T06:08:41.541Z,99.90
2023-03-26T06:09:44.325Z,99.90
2023-03-26T06:10:46.789Z,99.90
2023-03-26T06:11:49.202Z,99.90
2023-03-26T06:12:51.676Z,99.90
2023-03-26T06:13:54.030Z,99.90
2023-03-26T06:14:56.452Z,99.90
2023-03-26T06:15:59.680Z,99.90
2023-03-26T06:17:02.300Z,99.90
2023-03-26T06:18:04.801Z,99.90
2023-03-26T06:19:08.614Z,99.90
2023-03-26T06:20:12.478Z,99.90
2023-03-26T06:21:14.805Z,99.90
2023-03-26T06:22:17.074Z,99.90
2023-03-26T06:23:20.210Z,99.90
2023-03-26T06:24:22.522Z,99.90
2023-03-26T06:25:24.872Z,99.90
2023-03-26T06:26:27.180Z,99.90
2023-03-26T06:27:30.362Z,99.90
2023-03-26T06:28:33.448Z,99.90
2023-03-26T06:29:37.512Z,99.90
2023-03-26T06:30:40.438Z,99.90
2023-03-26T06:31:43.064Z,99.90
2023-03-26T06:32:45.605Z,99.90
2023-03-26T06:33:48.930Z,99.90
2023-03-26T06:34:51.298Z,99.90
2023-03-26T06:35:56.175Z,99.90
2023-03-26T06:36:58.575Z,99.90
2023-03-26T06:38:02.425Z,99.90
2023-03-26T06:39:07.870Z,99.90
2023-03-26T06:40:12.721Z,99.90
2023-03-26T06:41:16.221Z,99.90
2023-03-26T06:42:18.491Z,99.90
2023-03-26T06:43:21.124Z,99.90
2023-03-26T06:44:23.538Z,99.90
2023-03-26T06:45:26.030Z,99.90
2023-03-26T06:46:29.473Z,99.90
2023-03-26T06:47:32.111Z,99.90
2023-03-26T06:48:34.611Z,99.90
2023-03-26T06:49:38.414Z,99.90
2023-03-26T06:50:43.406Z,99.90
2023-03-26T06:51:46.704Z,99.90
2023-03-26T06:52:50.844Z,99.90
2023-03-26T06:53:53.608Z,99.90
2023-03-26T06:54:55.390Z,99.90
2023-03-26T06:55:57.266Z,99.90
2023-03-26T06:56:59.868Z,99.90
2023-03-26T06:58:01.759Z,99.90
2023-03-26T06:59:03.520Z,99.90
2023-03-26T07:00:06.203Z,99.90
2023-03-26T07:01:08.019Z,99.90
2023-03-26T07:02:11.433Z,99.90
2023-03-26T07:03:13.149Z,99.90
2023-03-26T07:04:15.020Z,99.90
2023-03-26T07:05:17.082Z,99.90
2023-03-26T07:06:18.861Z,99.90
2023-03-26T07:07:21.835Z,99.90
2023-03-26T07:08:25.185Z,99.90
2023-03-26T07:09:30.327Z,99.90
2023-03-26T07:10:32.451Z,99.90
2023-03-26T07:11:34.282Z,99.90
2023-03-26T07:12:36.079Z,99.90
2023-03-26T07:13:39.907Z,99.90
2023-03-26T07:14:41.822Z,99.90
2023-03-26T07:15:43.607Z,99.90
2023-03-26T07:16:45.400Z,99.90
2023-03-26T07:17:47.222Z,99.90
2023-03-26T07:18:49.026Z,99.90
2023-03-26T07:19:52.679Z,99.90
2023-03-26T07:20:54.991Z,99.90
2023-03-26T07:21:57.231Z,99.90
2023-03-26T07:22:59.401Z,99.90
2023-03-26T07:24:01.395Z,99.90
2023-03-26T07:25:03.571Z,99.90
2023-03-26T07:26:25.997Z,99.90
2023-03-26T07:27:33.988Z,99.90
2023-03-26T07:28:42.536Z,99.90
2023-03-26T07:30:20.422Z,99.90
2023-03-26T07:31:34.789Z,99.90
2023-03-26T07:32:43.431Z,99.90
2023-03-26T07:33:51.098Z,99.90
2023-03-26T07:35:26.287Z,99.90
2023-03-26T07:37:05.606Z,99.90
2023-03-26T07:38:25.731Z,99.90
2023-03-26T07:39:45.711Z,99.90
2023-03-26T07:41:02.358Z,99.90
2023-03-26T07:42:32.875Z,99.90
2023-03-26T07:43:59.824Z,99.90
2023-03-26T07:45:24.724Z,99.90
2023-03-26T07:46:32.358Z,99.90
2023-03-26T07:47:35.400Z,99.90
2023-03-26T07:48:42.843Z,99.90
2023-03-26T07:49:44.854Z,99.90
2023-03-26T07:50:47.506Z,99.90
2023-03-26T07:51:49.749Z,99.90
2023-03-26T07:52:53.308Z,99.90
2023-03-26T07:53:55.550Z,99.90
2023-03-26T07:54:57.738Z,99.90
2023-03-26T07:56:05.247Z,99.90
2023-03-26T07:57:21.778Z,99.90
2023-03-26T07:58:32.508Z,99.90
2023-03-26T07:59:40.148Z,99.90
2023-03-26T08:00:59.315Z,99.90
2023-03-26T08:02:30.456Z,99.90
2023-03-26T08:03:35.806Z,99.90
2023-03-26T08:05:00.332Z,99.90
2023-03-26T08:06:14.689Z,99.90
2023-03-26T08:07:51.640Z,99.90
2023-03-26T08:09:17.765Z,99.90
2023-03-26T08:10:27.321Z,99.90
2023-03-26T08:11:59.864Z,99.90
2023-03-26T08:13:26.824Z,99.90
2023-03-26T08:14:41.009Z,99.90
2023-03-26T08:16:20.608Z,99.90
2023-03-26T08:17:45.042Z,99.90
2023-03-26T08:18:56.650Z,99.90
2023-03-26T08:20:32.485Z,99.90
2023-03-26T08:21:42.155Z,99.90
2023-03-26T08:22:50.744Z,99.90
2023-03-26T08:24:02.084Z,99.90
2023-03-26T08:25:27.752Z,99.90
2023-03-26T08:26:51.880Z,99.90
2023-03-26T08:27:56.427Z,99.90
2023-03-26T08:30:01.572Z,99.90
2023-03-26T08:31:05.404Z,99.90
2023-03-26T08:32:14.745Z,99.90
2023-03-26T08:33:19.369Z,99.90
2023-03-26T08:34:21.293Z,99.90
2023-03-26T08:35:24.006Z,99.90
2023-03-26T08:36:26.801Z,99.90
2023-03-26T08:37:29.191Z,99.90
2023-03-26T08:38:31.021Z,99.90
2023-03-26T08:39:32.845Z,99.90
2023-03-26T08:40:55.520Z,99.90
2023-03-26T08:42:15.336Z,99.90
2023-03-26T08:43:35.782Z,99.90
2023-03-26T08:44:58.984Z,99.90
2023-03-26T08:46:22.772Z,99.90
2023-03-26T08:47:36.421Z,99.90
2023-03-26T08:49:00.494Z,99.90
2023-03-26T08:50:39.813Z,99.90
2023-03-26T08:52:12.423Z,99.90
2023-03-26T08:53:14.202Z,99.90
2023-03-26T08:54:40.460Z,99.90
2023-03-26T08:55:51.743Z,99.90
2023-03-26T08:57:11.830Z,99.90
2023-03-26T08:58:48.245Z,99.90
2023-03-26T09:00:37.555Z,99.90
2023-03-26T09:02:15.387Z,99.90
2023-03-26T09:03:35.759Z,99.90
2023-03-26T09:05:08.436Z,99.90
2023-03-26T09:06:25.244Z,99.90
2023-03-26T09:07:41.957Z,99.90
2023-03-26T09:08:54.421Z,99.90
2023-03-26T09:10:47.677Z,99.90
2023-03-26T09:12:19.610Z,99.90
2023-03-26T09:13:39.425Z,99.90
2023-03-26T09:15:05.440Z,99.90
2023-03-26T09:16:16.175Z,99.90
2023-03-26T09:17:21.153Z,99.90
2023-03-26T09:18:48.113Z,99.90
2023-03-26T09:20:18.642Z,99.90
2023-03-26T09:21:50.394Z,99.90
2023-03-26T09:23:41.172Z,99.90
2023-03-26T09:25:10.554Z,99.90
2023-03-26T09:26:39.922Z,99.90
2023-03-26T09:28:08.993Z,99.90
2023-03-26T09:29:37.427Z,99.90
2023-03-26T09:30:42.112Z,99.90
2023-03-26T09:32:02.479Z,99.90
2023-03-26T09:33:21.558Z,99.90
2023-03-26T09:35:02.318Z,99.90
2023-03-26T09:36:34.957Z,99.90
2023-03-26T09:37:56.856Z,99.90
2023-03-26T09:39:09.159Z,99.90
2023-03-26T09:40:24.752Z,99.90
2023-03-26T09:41:32.487Z,99.90
2023-03-26T09:42:54.817Z,99.90
2023-03-26T09:44:17.327Z,99.90
2023-03-26T09:45:31.017Z,99.90
2023-03-26T09:46:59.675Z,99.90
2023-03-26T09:48:26.811Z,99.90
2023-03-26T09:49:46.902Z,99.90
2023-03-26T09:51:18.028Z,99.90
2023-03-26T09:52:45.024Z,99.90
2023-03-26T09:54:13.581Z,99.90
2023-03-26T09:55:57.316Z,99.90
2023-03-26T09:57:05.221Z,99.90
2023-03-26T09:58:28.458Z,99.90
2023-03-26T09:59:56.407Z,99.90
2023-03-26T10:01:11.198Z,99.90
2023-03-26T10:02:45.934Z,99.90
2023-03-26T10:03:52.028Z,99.80
2023-03-26T10:05:20.044Z,99.90
2023-03-26T10:06:39.743Z,99.80
2023-03-26T10:08:03.425Z,99.70
2023-03-26T10:09:18.506Z,99.00
2023-03-26T10:10:58.068Z,99.80
2023-03-26T10:12:15.303Z,99.80
2023-03-26T10:13:30.689Z,99.20
2023-03-26T10:15:13.583Z,98.70
2023-03-26T10:16:24.062Z,99.00
2023-03-26T10:17:46.835Z,98.80
2023-03-26T10:19:16.690Z,99.50
2023-03-26T10:20:53.116Z,98.00
2023-03-26T10:22:29.452Z,97.70
2023-03-26T10:23:49.657Z,98.60
2023-03-26T10:25:06.126Z,98.20
2023-03-26T10:26:29.364Z,97.00
2023-03-26T10:27:48.692Z,97.50
2023-03-26T10:29:08.976Z,98.00
2023-03-26T10:30:30.579Z,96.60
2023-03-26T10:31:52.032Z,97.70
2023-03-26T10:33:15.618Z,97.30
2023-03-26T10:34:39.971Z,98.10
2023-03-26T10:36:19.794Z,98.50
2023-03-26T10:37:46.806Z,97.10
2023-03-26T10:39:36.759Z,97.20
2023-03-26T10:41:01.547Z,97.00
2023-03-26T10:42:27.906Z,97.80
2023-03-26T10:43:46.428Z,97.90
2023-03-26T10:45:24.727Z,98.40
2023-03-26T10:47:10.463Z,97.80
2023-03-26T10:48:46.043Z,96.80
2023-03-26T10:50:25.793Z,97.00
2023-03-26T10:51:51.292Z,96.70
2023-03-26T10:52:55.350Z,96.80
2023-03-26T10:54:08.100Z,95.70
2023-03-26T10:55:41.806Z,94.30
2023-03-26T10:56:47.426Z,92.10
2023-03-26T10:58:04.437Z,93.80
2023-03-26T10:59:08.708Z,93.20
2023-03-26T11:00:25.617Z,92.60
2023-03-26T11:01:52.649Z,93.10
2023-03-26T11:03:09.088Z,92.00
2023-03-26T11:04:43.566Z,91.50
2023-03-26T11:05:57.626Z,90.00
2023-03-26T11:07:04.824Z,93.50
2023-03-26T11:08:41.824Z,94.50
2023-03-26T11:10:02.973Z,93.50
2023-03-26T11:11:13.453Z,91.20
2023-03-26T11:12:26.693Z,93.70
2023-03-26T11:13:44.396Z,92.90
2023-03-26T11:15:19.796Z,94.30
2023-03-26T11:16:39.399Z,93.10
2023-03-26T11:17:49.595Z,93.30
2023-03-26T11:19:11.763Z,93.10
2023-03-26T11:20:25.867Z,92.40
2023-03-26T11:21:34.634Z,91.60
2023-03-26T11:23:01.931Z,92.20
2023-03-26T11:24:28.487Z,93.10
2023-03-26T11:25:42.159Z,93.80
2023-03-26T11:26:55.538Z,93.70
2023-03-26T11:28:12.982Z,93.50
2023-03-26T11:29:34.344Z,94.20
2023-03-26T11:30:53.967Z,93.40
2023-03-26T11:32:23.917Z,93.50
2023-03-26T11:33:37.219Z,94.60
2023-03-26T11:35:00.062Z,93.70
2023-03-26T11:36:08.703Z,93.80
2023-03-26T11:37:40.004Z,94.10
2023-03-26T11:38:46.072Z,93.40
2023-03-26T11:39:56.419Z,93.60
2023-03-26T11:41:01.225Z,94.20
2023-03-26T11:42:09.853Z,94.50
2023-03-26T11:43:13.376Z,94.10
2023-03-26T11:44:20.646Z,93.70
2023-03-26T11:45:26.002Z,93.60
2023-03-26T11:46:28.585Z,93.60
2023-03-26T11:47:43.684Z,93.80
2023-03-26T11:48:49.593Z,94.40
2023-03-26T11:49:54.562Z,94.00
2023-03-26T11:51:05.189Z,95.70
2023-03-26T11:52:09.994Z,96.10
2023-03-26T11:53:17.719Z,94.80
2023-03-26T11:54:20.961Z,94.30
2023-03-26T11:55:24.209Z,95.70
2023-03-26T11:57:05.735Z,94.90
2023-03-26T11:58:06.809Z,94.70
2023-03-26T11:59:21.665Z,93.50
2023-03-26T12:00:27.440Z,95.30
2023-03-26T12:01:51.248Z,95.40
2023-03-26T12:02:58.052Z,95.70
2023-03-26T12:04:14.865Z,94.90
2023-03-26T12:05:20.855Z,93.70
2023-03-26T12:06:25.944Z,92.00
2023-03-26T12:07:34.455Z,93.50
2023-03-26T12:08:39.896Z,93.60
2023-03-26T12:09:51.248Z,93.40
2023-03-26T12:11:04.258Z,92.50
2023-03-26T12:12:06.487Z,93.10
2023-03-26T12:13:34.745Z,93.50
2023-03-26T12:14:42.395Z,92.90
2023-03-26T12:15:44.404Z,93.30
2023-03-26T12:17:09.235Z,92.90
2023-03-26T12:18:27.843Z,93.00
2023-03-26T12:19:38.103Z,93.20
2023-03-26T12:20:40.471Z,92.80
2023-03-26T12:21:51.265Z,94.20
2023-03-26T12:22:58.953Z,94.20
2023-03-26T12:24:04.511Z,93.60
2023-03-26T12:25:09.571Z,93.80
2023-03-26T12:26:15.779Z,93.90
2023-03-26T12:27:25.090Z,94.70
2023-03-26T12:28:32.731Z,94.20
2023-03-26T12:29:34.897Z,94.40
2023-03-26T12:30:39.514Z,94.80
2023-03-26T12:32:14.089Z,94.40
2023-03-26T12:33:26.141Z,94.40
2023-03-26T12:34:37.475Z,94.10
2023-03-26T12:35:40.799Z,94.20
2023-03-26T12:36:50.544Z,95.10
2023-03-26T12:37:53.387Z,93.60
2023-03-26T12:39:17.173Z,93.80
2023-03-26T12:40:30.029Z,94.70
2023-03-26T12:44:43.118Z,93.80
2023-03-26T12:44:46.166Z,93.50
2023-03-26T12:44:53.355Z,93.40
2023-03-26T12:47:55.646Z,95.20
2023-03-26T12:48:00.155Z,94.60
2023-03-26T12:48:48.169Z,94.70
2023-03-26T12:49:52.202Z,94.30
2023-03-26T12:51:17.127Z,94.30
2023-03-26T12:52:38.399Z,94.20
2023-03-26T12:53:43.104Z,93.90
2023-03-26T12:55:12.086Z,93.60
2023-03-26T12:56:27.214Z,94.00
2023-03-26T12:57:38.810Z,93.90
2023-03-26T12:59:06.831Z,93.90
2023-03-26T13:00:40.842Z,94.10
2023-03-26T13:01:45.549Z,93.90
2023-03-26T13:03:11.934Z,94.20
2023-03-26T13:05:05.822Z,94.10
2023-03-26T13:07:00.201Z,94.10
2023-03-26T13:08:33.778Z,93.70
2023-03-26T13:09:53.398Z,93.80
2023-03-26T13:11:27.516Z,94.10
2023-03-26T13:12:57.513Z,94.10
2023-03-26T13:14:21.105Z,93.20
2023-03-26T13:15:47.214Z,94.20
2023-03-26T13:17:03.791Z,94.70
2023-03-26T13:18:18.281Z,94.10
2023-03-26T13:19:51.600Z,94.70
2023-03-26T13:21:28.948Z,94.80
2023-03-26T13:22:36.734Z,94.70
2023-03-26T13:23:38.498Z,93.80
2023-03-26T13:24:46.977Z,93.90
2023-03-26T13:26:04.642Z,93.80
2023-03-26T13:27:39.861Z,93.50
2023-03-26T13:29:13.908Z,93.10
2023-03-26T13:30:34.265Z,94.10
2023-03-26T13:32:08.369Z,94.10
2023-03-26T13:33:30.893Z,93.10
2023-03-26T13:34:55.481Z,93.80
2023-03-26T13:36:22.564Z,94.10
2023-03-26T13:37:34.947Z,93.80
2023-03-26T13:39:03.554Z,93.10
2023-03-26T13:40:32.461Z,93.50
2023-03-26T13:41:41.343Z,92.70
2023-03-26T13:43:08.735Z,93.30
2023-03-26T13:44:13.183Z,93.70
2023-03-26T13:45:31.267Z,93.60
2023-03-26T13:46:41.097Z,93.10
2023-03-26T13:47:48.817Z,93.80
2023-03-26T13:49:06.193Z,92.90
2023-03-26T13:50:26.109Z,93.30
2023-03-26T13:51:30.817Z,92.60
2023-03-26T13:52:59.392Z,93.30
2023-03-26T13:54:13.601Z,92.80
2023-03-26T13:55:38.384Z,93.00
2023-03-26T13:56:46.937Z,92.10
2023-03-26T13:57:56.926Z,92.00
2023-03-26T13:59:05.722Z,92.90
2023-03-26T14:00:16.428Z,93.60
2023-03-26T14:01:33.948Z,93.30
2023-03-26T14:02:38.172Z,93.70
2023-03-26T14:03:43.178Z,93.20
2023-03-26T14:04:50.970Z,93.50
2023-03-26T14:05:59.922Z,93.80
2023-03-26T14:07:15.658Z,93.20
2023-03-26T14:08:27.558Z,92.30
2023-03-26T14:09:53.513Z,92.10
2023-03-26T14:11:14.791Z,92.00
2023-03-26T14:12:33.468Z,92.70
2023-03-26T14:13:54.056Z,92.90
2023-03-26T14:15:19.450Z,93.00
2023-03-26T14:16:39.405Z,93.30
2023-03-26T14:17:47.589Z,93.80
2023-03-26T14:19:27.373Z,93.20
2023-03-26T14:20:59.662Z,93.20
2023-03-26T14:22:39.777Z,94.30
2023-03-26T14:23:56.995Z,96.90
2023-03-26T14:25:08.238Z,99.60
2023-03-26T14:26:23.229Z,99.90
2023-03-26T14:27:49.718Z,99.90
2023-03-26T14:29:29.321Z,99.90
2023-03-26T14:30:46.337Z,99.90
2023-03-26T14:31:53.923Z,99.90
2023-03-26T14:33:46.266Z,99.90
2023-03-26T14:34:54.072Z,99.90
2023-03-26T14:36:04.380Z,99.90
2023-03-26T14:37:28.751Z,99.90
2023-03-26T14:39:08.501Z,99.90
2023-03-26T14:40:30.656Z,99.90
2023-03-26T14:41:53.625Z,99.90
2023-03-26T14:43:05.111Z,99.90
2023-03-26T14:44:24.497Z,99.90
2023-03-26T14:45:34.966Z,99.90
2023-03-26T14:46:59.813Z,99.90
2023-03-26T14:48:32.635Z,99.90
2023-03-26T14:49:43.717Z,99.90
2023-03-26T14:50:48.163Z,99.90
2023-03-26T14:52:08.982Z,99.90
2023-03-26T14:53:20.350Z,99.90
2023-03-26T14:54:27.920Z,99.90
2023-03-26T14:55:52.088Z,99.90
2023-03-26T14:57:12.755Z,99.90
2023-03-26T14:59:04.803Z,99.90
2023-03-26T15:00:43.516Z,99.90
2023-03-26T15:02:22.258Z,99.90
2023-03-26T15:03:58.019Z,99.90
2023-03-26T15:05:37.200Z,99.90
2023-03-26T15:06:47.752Z,99.90
2023-03-26T15:08:16.984Z,99.90
2023-03-26T15:09:33.869Z,99.90
2023-03-26T15:11:04.731Z,99.90
2023-03-26T15:12:27.859Z,99.90
2023-03-26T15:14:13.956Z,99.90
2023-03-26T15:15:56.404Z,99.90
2023-03-26T15:17:28.945Z,99.90
2023-03-26T15:18:52.390Z,99.90
2023-03-26T15:20:13.043Z,99.90
2023-03-26T15:21:40.900Z,99.90
2023-03-26T15:22:57.393Z,99.90
2023-03-26T15:24:27.375Z,99.90
2023-03-26T15:25:44.216Z,99.90
2023-03-26T15:26:49.677Z,99.90